Time;durP1;ratioP1;P1;durP2;ratioP2;P2;SDS_P1;SDS_P2;PMS_P1;PMS_P2;Temp;Humidity;BMP_temperature;BMP_pressure;BME280_temperature;BME280_humidity;BME280_pressure;Samples;Min_cycle;Max_cycle;Signal;HPM_P1;HPM_P2
2021/09/29 00:01:23;;;;;;;5.57;2.42;;;;;;;8.33;73.57;100705.56;5082686;28;20048;-77
2021/09/29 00:03:50;;;;;;;3.67;1.42;;;;;;;8.31;73.78;100718.88;5087365;28;20036;-77
2021/09/29 00:06:17;;;;;;;1.30;1.13;;;;;;;8.28;73.95;100709.31;5083659;28;20504;-77
2021/09/29 00:08:44;;;;;;;3.50;1.17;;;;;;;8.27;74.09;100718.72;5085431;28;20495;-76
2021/09/29 00:11:11;;;;;;;4.50;1.30;;;;;;;8.28;73.69;100733.31;5086673;28;20051;-77
2021/09/29 00:13:38;;;;;;;5.47;1.63;;;;;;;8.26;73.89;100730.06;5086664;28;20842;-77
2021/09/29 00:16:04;;;;;;;3.08;1.35;;;;;;;8.20;73.99;100721.16;5086189;28;20048;-77
2021/09/29 00:18:32;;;;;;;2.22;1.02;;;;;;;8.14;74.46;100729.94;5085242;28;20124;-77
2021/09/29 00:20:58;;;;;;;6.45;1.50;;;;;;;8.13;74.21;100731.09;5083917;28;20495;-77
2021/09/29 00:23:25;;;;;;;2.95;1.45;;;;;;;8.11;74.23;100734.16;5083756;28;20051;-76
2021/09/29 00:25:52;;;;;;;4.07;1.50;;;;;;;8.12;74.30;100730.28;5083886;28;20032;-77
2021/09/29 00:28:19;;;;;;;2.83;1.20;;;;;;;8.08;74.39;100748.59;5085757;28;20040;-76
2021/09/29 00:31:01;;;;;;;2.80;1.30;;;;;;;8.05;74.58;100746.50;5084934;28;20382;-77
2021/09/29 00:33:28;;;;;;;5.10;1.25;;;;;;;8.09;74.20;100750.22;5084953;28;20052;-77
2021/09/29 00:35:58;;;;;;;3.10;1.10;;;;;;;8.03;74.43;100765.31;5083193;28;20050;-77
2021/09/29 00:38:25;;;;;;;4.65;1.83;;;;;;;8.02;74.27;100766.47;5085981;28;20052;-77
2021/09/29 00:40:51;;;;;;;4.10;1.58;;;;;;;7.96;74.54;100765.81;5085456;28;20040;-77
2021/09/29 00:43:18;;;;;;;3.90;1.17;;;;;;;7.94;74.85;100768.06;5086085;28;20048;-77
2021/09/29 00:45:45;;;;;;;2.47;1.60;;;;;;;7.93;74.62;100774.75;5084684;28;20743;-77
2021/09/29 00:48:11;;;;;;;4.30;1.65;;;;;;;7.90;74.82;100778.16;5085332;28;20491;-77
2021/09/29 00:50:38;;;;;;;3.97;1.40;;;;;;;7.91;74.81;100778.97;5086705;28;20488;-77
2021/09/29 00:53:05;;;;;;;4.53;1.20;;;;;;;7.90;74.58;100785.59;5085859;28;20036;-77
2021/09/29 00:55:33;;;;;;;2.22;1.63;;;;;;;7.86;74.95;100792.91;5084790;28;20043;-77
2021/09/29 00:58:00;;;;;;;2.97;0.98;;;;;;;7.87;74.81;100794.53;5085021;28;20044;-77
2021/09/29 01:00:27;;;;;;;3.55;1.10;;;;;;;7.84;75.08;100790.47;5084244;28;20143;-77
2021/09/29 01:02:53;;;;;;;2.88;1.58;;;;;;;7.82;75.13;100801.03;5085566;28;20047;-77
2021/09/29 01:05:21;;;;;;;4.25;1.70;;;;;;;7.78;75.10;100805.53;5085623;28;20039;-77
2021/09/29 01:07:57;;;;;;;3.88;1.00;;;;;;;7.74;75.29;100812.03;5084585;28;20147;-76
2021/09/29 01:10:37;;;;;;;3.10;1.67;;;;;;;7.72;75.31;100823.41;5084396;28;20052;-77
2021/09/29 01:13:10;;;;;;;4.07;1.15;;;;;;;7.69;75.83;100829.56;5085786;28;20123;-77
2021/09/29 01:16:00;;;;;;;2.65;0.85;;;;;;;7.67;76.16;100818.06;5084962;28;20046;-77
2021/09/29 01:18:32;;;;;;;6.03;1.27;;;;;;;7.68;75.29;100824.34;5086227;28;20472;-77
2021/09/29 01:21:04;;;;;;;2.80;1.67;;;;;;;7.71;75.28;100824.53;5084712;28;20044;-77
2021/09/29 01:23:42;;;;;;;4.25;0.82;;;;;;;7.68;75.41;100830.69;5084390;28;20048;-77
2021/09/29 01:26:17;;;;;;;3.83;1.17;;;;;;;7.64;75.56;100829.72;5083825;28;20043;-77
2021/09/29 01:28:48;;;;;;;4.78;1.30;;;;;;;7.64;75.24;100826.16;5084804;28;20051;-77
2021/09/29 01:31:17;;;;;;;2.83;1.13;;;;;;;7.67;75.49;100839.28;5084252;28;20044;-77
2021/09/29 01:33:46;;;;;;;3.63;1.50;;;;;;;7.64;75.25;100842.69;5083020;28;20043;-77
2021/09/29 01:36:16;;;;;;;1.77;1.10;;;;;;;7.62;75.60;100848.53;5085396;28;20147;-77
2021/09/29 01:38:43;;;;;;;4.05;1.17;;;;;;;7.67;75.22;100859.38;5082587;28;20048;-77
2021/09/29 01:41:29;;;;;;;2.67;1.05;;;;;;;7.69;75.45;100856.28;5085661;28;20052;-77
2021/09/29 01:43:56;;;;;;;3.70;1.25;;;;;;;7.71;74.94;100862.28;5086289;28;20040;-76
2021/09/29 01:46:24;;;;;;;2.20;0.82;;;;;;;7.70;75.15;100868.94;5083580;28;20040;-77
2021/09/29 01:49:12;;;;;;;2.80;1.25;;;;;;;7.62;75.51;100870.56;5084344;28;20127;-77
2021/09/29 01:51:44;;;;;;;2.92;1.25;;;;;;;7.62;75.33;100870.56;5084053;28;20476;-77
2021/09/29 01:54:14;;;;;;;3.35;1.30;;;;;;;7.58;75.40;100868.75;5084996;28;20044;-77
2021/09/29 01:56:42;;;;;;;2.83;1.30;;;;;;;7.54;75.53;100874.13;5084374;28;20060;-77
2021/09/29 01:59:09;;;;;;;3.08;1.50;;;;;;;7.54;75.63;100879.63;5084613;28;20040;-77
2021/09/29 02:01:40;;;;;;;4.60;1.30;;;;;;;7.55;75.64;100885.94;5085163;28;20047;-77
2021/09/29 02:04:10;;;;;;;5.27;1.80;;;;;;;7.55;75.57;100889.50;5083775;28;20048;-77
2021/09/29 02:06:50;;;;;;;3.08;1.08;;;;;;;7.51;75.65;100884.97;5083550;28;20127;-77
2021/09/29 02:09:18;;;;;;;4.40;1.17;;;;;;;7.55;75.51;100891.44;5083607;28;20472;-77
2021/09/29 02:11:46;;;;;;;3.45;1.42;;;;;;;7.51;75.76;100885.78;5084536;28;20400;-77
2021/09/29 02:14:14;;;;;;;5.40;1.35;;;;;;;7.49;75.84;100890.81;5083665;28;20036;-77
2021/09/29 02:16:41;;;;;;;2.13;1.02;;;;;;;7.48;75.64;100886.41;5081843;28;20052;-77
2021/09/29 02:19:08;;;;;;;3.58;1.90;;;;;;;7.49;75.72;100899.06;5084411;28;20133;-77
2021/09/29 02:21:34;;;;;;;6.03;1.75;;;;;;;7.49;75.54;100893.56;5082793;28;20681;-77
2021/09/29 02:24:01;;;;;;;2.70;0.85;;;;;;;7.47;75.26;100895.81;5082715;28;20121;-77
2021/09/29 02:26:28;;;;;;;3.22;1.17;;;;;;;7.43;75.80;100903.09;5083127;28;20040;-77
2021/09/29 02:28:54;;;;;;;5.60;0.82;;;;;;;7.36;75.70;100905.50;5084278;28;20719;-77
2021/09/29 02:31:21;;;;;;;6.10;1.10;;;;;;;7.31;76.09;100902.88;5083643;28;20068;-77
2021/09/29 02:33:48;;;;;;;2.10;1.05;;;;;;;7.31;75.90;100909.22;5084292;28;20040;-77
2021/09/29 02:36:15;;;;;;;4.10;1.10;;;;;;;7.24;75.83;100902.53;5067387;28;20466;-77
2021/09/29 02:38:43;;;;;;;5.63;1.45;;;;;;;7.26;75.83;100905.78;5082275;28;20048;-77
2021/09/29 02:41:13;;;;;;;3.42;1.02;;;;;;;7.24;75.94;100908.06;5082099;28;20052;-76
2021/09/29 02:43:40;;;;;;;5.03;1.80;;;;;;;7.23;76.43;100909.19;5085594;28;20043;-77
2021/09/29 02:46:07;;;;;;;3.38;0.90;;;;;;;7.25;75.92;100920.72;5083592;28;20495;-77
2021/09/29 02:48:34;;;;;;;3.83;1.00;;;;;;;7.18;75.88;100923.09;5077286;28;20480;-76
2021/09/29 02:51:00;;;;;;;5.65;1.15;;;;;;;7.17;76.01;100930.56;5084875;28;20062;-76
2021/09/29 02:53:29;;;;;;;4.95;1.63;;;;;;;7.18;75.97;100926.66;5083899;28;20047;-76
2021/09/29 02:55:57;;;;;;;4.28;1.20;;;;;;;7.15;76.01;100926.47;5081794;28;20500;-77
2021/09/29 02:58:24;;;;;;;6.28;1.30;;;;;;;7.13;76.18;100939.75;5082410;28;20028;-77
2021/09/29 03:00:52;;;;;;;4.82;1.00;;;;;;;7.13;76.24;100945.25;5083130;28;20037;-77
2021/09/29 03:03:20;;;;;;;4.78;0.85;;;;;;;7.10;76.24;100940.38;5083727;28;20059;-77
2021/09/29 03:05:48;;;;;;;2.20;0.70;;;;;;;7.09;76.32;100949.78;5098388;28;20055;-76
2021/09/29 03:08:15;;;;;;;6.40;1.10;;;;;;;7.07;76.46;100935.53;5086275;28;20383;-76
2021/09/29 03:10:43;;;;;;;3.33;1.00;;;;;;;7.09;76.54;100944.28;5087740;28;20047;-77
2021/09/29 03:13:12;;;;;;;1.90;1.55;;;;;;;7.09;76.57;100947.03;5087571;28;20048;-77
2021/09/29 03:15:39;;;;;;;3.20;0.63;;;;;;;7.07;76.40;100957.56;5081421;28;20132;-77
2021/09/29 03:18:06;;;;;;;1.63;1.20;;;;;;;7.00;76.36;100969.00;5088003;28;20142;-77
2021/09/29 03:20:33;;;;;;;4.35;0.60;;;;;;;6.98;76.84;100964.94;5086698;28;20044;-77
2021/09/29 03:23:00;;;;;;;5.07;1.17;;;;;;;6.99;76.76;100972.09;5086169;28;20050;-77
2021/09/29 03:25:27;;;;;;;4.07;1.30;;;;;;;7.02;76.70;100983.25;5083893;28;20054;-77
2021/09/29 03:27:54;;;;;;;2.53;0.70;;;;;;;7.00;76.72;100987.47;5086682;28;20048;-76
2021/09/29 03:30:21;;;;;;;3.95;0.77;;;;;;;7.01;76.48;100983.59;5083580;28;20040;-77
2021/09/29 03:32:48;;;;;;;3.38;0.80;;;;;;;7.01;76.77;100995.41;5088768;28;20055;-77
2021/09/29 03:35:14;;;;;;;2.03;0.63;;;;;;;6.97;76.46;101001.84;5086330;28;20713;-77
2021/09/29 03:37:43;;;;;;;7.10;0.77;;;;;;;6.98;76.69;101004.31;5087628;28;20403;-76
2021/09/29 03:40:12;;;;;;;6.28;1.02;;;;;;;7.01;76.45;101000.09;5084932;28;20071;-77
2021/09/29 03:42:40;;;;;;;6.07;1.58;;;;;;;6.99;76.74;100999.63;5087280;28;20048;-76
2021/09/29 03:45:08;;;;;;;3.15;0.80;;;;;;;6.97;76.69;101013.69;5085420;28;20048;-77
2021/09/29 03:47:35;;;;;;;3.13;0.70;;;;;;;6.97;76.57;101015.63;5087101;28;20036;-77
2021/09/29 03:50:03;;;;;;;5.57;1.30;;;;;;;6.94;76.88;101019.00;5086361;28;20756;-76
2021/09/29 03:52:30;;;;;;;1.35;0.50;;;;;;;6.93;76.82;101017.38;5087255;28;20052;-76
2021/09/29 03:54:56;;;;;;;3.67;0.82;;;;;;;6.95;76.82;101021.44;5084607;28;20415;-77
2021/09/29 03:57:23;;;;;;;2.95;0.70;;;;;;;6.96;76.63;101027.75;5086780;28;20051;-77
2021/09/29 03:59:50;;;;;;;2.15;0.70;;;;;;;6.94;76.68;101025.31;5086263;28;20387;-77
2021/09/29 04:02:17;;;;;;;2.40;0.50;;;;;;;6.96;76.84;101033.28;5085510;28;20062;-76
2021/09/29 04:04:44;;;;;;;3.28;0.82;;;;;;;6.93;76.95;101036.66;5087113;28;20037;-76
2021/09/29 04:07:10;;;;;;;2.63;0.60;;;;;;;6.92;76.67;101038.56;5084370;28;20051;-77
2021/09/29 04:09:37;;;;;;;4.65;0.88;;;;;;;6.94;76.83;101041.00;5087076;28;20048;-77
2021/09/29 04:12:04;;;;;;;3.90;0.57;;;;;;;6.94;76.68;101041.81;5086097;28;20505;-76
2021/09/29 04:14:31;;;;;;;1.08;0.50;;;;;;;6.90;76.81;101051.03;5088190;28;20048;-77
2021/09/29 04:16:57;;;;;;;7.05;0.98;;;;;;;6.87;76.92;101057.97;5086941;28;20039;-77
2021/09/29 04:19:24;;;;;;;1.00;0.70;;;;;;;6.88;77.08;101053.28;5085910;28;20093;-77
2021/09/29 04:21:51;;;;;;;5.07;0.75;;;;;;;6.92;77.02;101062.53;5086708;28;20160;-76
2021/09/29 04:24:18;;;;;;;2.17;0.60;;;;;;;6.93;76.56;101061.41;5085364;28;20139;-77
2021/09/29 04:26:48;;;;;;;3.70;0.68;;;;;;;6.88;76.88;101075.31;5083950;28;20093;-77
2021/09/29 04:29:16;;;;;;;7.35;0.70;;;;;;;6.89;76.76;101065.91;5086311;28;20093;-77
2021/09/29 04:31:43;;;;;;;4.60;0.82;;;;;;;6.86;77.08;101072.06;5086830;28;20038;-77
2021/09/29 04:34:09;;;;;;;1.73;0.60;;;;;;;6.87;76.89;101087.44;5085542;28;20051;-77
2021/09/29 04:36:36;;;;;;;3.17;0.50;;;;;;;6.87;76.96;101091.00;5085483;28;20044;-77
2021/09/29 04:39:04;;;;;;;4.03;0.80;;;;;;;6.84;76.74;101097.13;5083549;28;20044;-77
2021/09/29 04:41:31;;;;;;;2.25;0.60;;;;;;;6.85;76.65;101096.00;5086904;28;20036;-76
2021/09/29 04:43:57;;;;;;;2.95;1.00;;;;;;;6.83;77.18;101102.94;5086024;28;20215;-77
2021/09/29 04:46:24;;;;;;;3.65;1.10;;;;;;;6.81;76.99;101111.50;5084740;28;20048;-76
2021/09/29 04:48:51;;;;;;;2.80;0.50;;;;;;;6.82;76.91;101120.56;5085420;28;20047;-77
2021/09/29 04:51:17;;;;;;;7.32;2.25;;;;;;;6.78;76.84;101114.09;5085860;28;20051;-77
2021/09/29 04:53:44;;;;;;;4.32;0.80;;;;;;;6.73;77.26;101126.00;5084455;28;20488;-77
2021/09/29 04:56:11;;;;;;;2.70;1.00;;;;;;;6.69;77.29;101125.81;5086099;28;20036;-77
2021/09/29 04:58:38;;;;;;;4.07;1.00;;;;;;;6.68;77.25;101123.38;5085277;28;20044;-76
2021/09/29 05:01:05;;;;;;;2.38;0.98;;;;;;;6.67;77.30;101130.00;5084505;28;20046;-76
2021/09/29 05:03:33;;;;;;;2.90;0.98;;;;;;;6.63;77.57;101135.31;5083966;28;20453;-77
2021/09/29 05:06:00;;;;;;;3.65;0.93;;;;;;;6.63;77.51;101129.81;5084590;28;20048;-77
2021/09/29 05:08:30;;;;;;;3.25;0.47;;;;;;;6.60;77.47;101141.41;5082872;28;20043;-77
2021/09/29 05:11:04;;;;;;;8.02;0.70;;;;;;;6.56;77.77;101145.94;5083543;28;20036;-77
2021/09/29 05:13:32;;;;;;;1.17;0.50;;;;;;;6.58;77.42;101142.84;5083702;28;20028;-76
2021/09/29 05:16:02;;;;;;;2.15;0.60;;;;;;;6.55;77.34;101146.22;5082896;28;20727;-77
2021/09/29 05:18:29;;;;;;;6.00;0.47;;;;;;;6.56;77.31;101159.69;5084788;28;20039;-76
2021/09/29 05:20:56;;;;;;;5.60;0.75;;;;;;;6.56;77.69;101167.13;5085638;28;20028;-77
2021/09/29 05:23:23;;;;;;;2.78;0.75;;;;;;;6.55;77.22;101173.72;5064994;28;20044;-77
2021/09/29 05:25:50;;;;;;;3.92;2.30;;;;;;;6.52;77.58;101174.34;5084485;28;20063;-77
2021/09/29 05:28:22;;;;;;;2.50;0.80;;;;;;;6.48;77.38;101185.16;5084800;28;20040;-77
2021/09/29 05:30:48;;;;;;;3.42;0.57;;;;;;;6.49;77.60;101183.19;5079920;28;20044;-77
2021/09/29 05:33:15;;;;;;;3.53;0.50;;;;;;;6.46;77.78;101190.13;5065899;28;20129;-77
2021/09/29 05:35:42;;;;;;;4.47;0.90;;;;;;;6.45;77.67;101194.03;5084817;28;20032;-76
2021/09/29 05:38:09;;;;;;;5.22;0.80;;;;;;;6.40;77.81;101205.13;5083200;28;20499;-77
2021/09/29 05:40:36;;;;;;;2.75;0.60;;;;;;;6.39;78.17;101205.41;5083884;28;20541;-77
2021/09/29 05:43:04;;;;;;;5.90;0.88;;;;;;;6.44;77.87;101203.38;5084011;28;20040;-77
2021/09/29 05:45:31;;;;;;;4.00;0.60;;;;;;;6.45;77.93;101210.53;5083190;28;20032;-77
2021/09/29 05:47:58;;;;;;;4.43;0.73;;;;;;;6.45;77.72;101217.94;5083073;28;20044;-76
2021/09/29 05:50:25;;;;;;;3.13;0.47;;;;;;;6.46;77.85;101216.84;5078576;28;20055;-77
2021/09/29 05:52:51;;;;;;;4.95;0.90;;;;;;;6.47;77.58;101221.22;5083621;28;20051;-77
2021/09/29 05:55:19;;;;;;;3.47;0.80;;;;;;;6.49;77.73;101228.03;5084219;28;20101;-77
2021/09/29 05:57:46;;;;;;;3.33;0.80;;;;;;;6.45;78.14;101237.22;5083691;28;20369;-77
2021/09/29 06:00:14;;;;;;;4.75;0.70;;;;;;;6.41;78.36;101248.00;5083697;28;20043;-76
2021/09/29 06:02:40;;;;;;;4.78;0.65;;;;;;;6.42;77.80;101244.13;5082775;28;20040;-76
2021/09/29 06:05:08;;;;;;;2.10;0.73;;;;;;;6.40;78.35;101260.13;5085186;28;20044;-77
2021/09/29 06:07:35;;;;;;;3.97;1.00;;;;;;;6.40;78.14;101262.88;5085018;28;20040;-76
2021/09/29 06:10:04;;;;;;;4.45;0.80;;;;;;;6.37;78.57;101262.66;5083690;28;20040;-77
2021/09/29 06:12:31;;;;;;;2.35;0.68;;;;;;;6.40;78.52;101271.13;5084715;28;20037;-77
2021/09/29 06:14:58;;;;;;;6.05;1.17;;;;;;;6.35;78.59;101271.22;5085248;28;20482;-77
2021/09/29 06:17:25;;;;;;;4.03;1.23;;;;;;;6.37;78.35;101269.00;5081997;28;20047;-77
2021/09/29 06:19:53;;;;;;;4.95;0.90;;;;;;;6.34;78.53;101286.09;5076838;28;20046;-77
2021/09/29 06:22:23;;;;;;;2.45;0.77;;;;;;;6.34;78.80;101275.09;5084664;28;20032;-76
2021/09/29 06:24:50;;;;;;;3.25;0.60;;;;;;;6.36;78.47;101283.03;5082768;28;20048;-76
2021/09/29 06:27:18;;;;;;;2.85;0.50;;;;;;;6.35;78.55;101295.97;5079978;28;20040;-83
2021/09/29 06:29:45;;;;;;;6.88;1.00;;;;;;;6.34;78.73;101301.78;5084206;28;20050;-77
2021/09/29 06:32:11;;;;;;;2.85;0.80;;;;;;;6.32;78.66;101301.25;5083947;28;20046;-77
2021/09/29 06:34:38;;;;;;;6.20;0.82;;;;;;;6.34;78.87;101313.59;5081629;28;20123;-77
2021/09/29 06:37:05;;;;;;;4.38;0.95;;;;;;;6.40;78.63;101311.56;5084018;28;20048;-78
2021/09/29 06:39:34;;;;;;;5.68;1.58;;;;;;;6.40;78.49;101306.88;5086741;28;20087;-78
2021/09/29 06:42:08;;;;;;;6.10;0.70;;;;;;;6.41;78.84;101307.69;5090999;28;20040;-77
2021/09/29 06:44:49;;;;;;;3.80;0.57;;;;;;;6.41;78.66;101319.50;5089935;28;20786;-77
2021/09/29 06:47:21;;;;;;;4.68;0.75;;;;;;;6.46;78.27;101338.66;5087992;28;20032;-77
2021/09/29 06:49:52;;;;;;;1.65;0.68;;;;;;;6.46;78.66;101344.16;5089735;28;20503;-78
2021/09/29 06:52:22;;;;;;;4.75;0.90;;;;;;;6.47;78.54;101350.47;5089883;28;20060;-78
2021/09/29 06:54:49;;;;;;;3.97;0.77;;;;;;;6.46;78.66;101359.88;5091014;28;20044;-78
2021/09/29 06:57:19;;;;;;;3.63;1.15;;;;;;;6.46;78.71;101360.66;5062353;28;20052;-78
2021/09/29 06:59:51;;;;;;;5.13;0.80;;;;;;;6.49;78.39;101373.00;5076026;28;20050;-78
2021/09/29 07:02:31;;;;;;;3.92;0.68;;;;;;;6.52;78.54;101370.47;5088141;28;20043;-78
2021/09/29 07:05:11;;;;;;;4.30;0.88;;;;;;;6.55;78.44;101375.34;5092150;28;20055;-79
2021/09/29 07:07:56;;;;;;;3.65;0.70;;;;;;;6.58;78.46;101387.69;5085604;28;20051;-78
2021/09/29 07:10:23;;;;;;;5.07;0.70;;;;;;;6.60;78.54;101389.03;5090567;28;20123;-78
2021/09/29 07:13:01;;;;;;;5.18;0.85;;;;;;;6.60;78.45;101383.50;5092006;28;20039;-78
2021/09/29 07:15:39;;;;;;;3.85;0.80;;;;;;;6.62;78.28;101392.28;5088459;28;20052;-79
2021/09/29 07:18:16;;;;;;;6.28;1.20;;;;;;;6.63;78.32;101387.59;5089011;28;20097;-78
2021/09/29 07:20:48;;;;;;;7.43;1.15;;;;;;;6.66;78.17;101393.31;5059460;28;20667;-78
2021/09/29 07:23:14;;;;;;;3.08;0.90;;;;;;;6.71;78.23;101390.47;5089469;28;20058;-78
2021/09/29 07:25:41;;;;;;;4.10;1.13;;;;;;;6.74;78.16;101411.88;5088960;28;20048;-78
2021/09/29 07:28:08;;;;;;;6.90;1.35;;;;;;;6.77;78.02;101409.63;5085653;28;20048;-78
2021/09/29 07:30:35;;;;;;;4.60;0.80;;;;;;;6.80;78.01;101409.03;5086238;28;20044;-78
2021/09/29 07:33:05;;;;;;;8.70;0.98;;;;;;;6.83;77.81;101406.47;5084570;28;20040;-78
2021/09/29 07:35:33;;;;;;;4.53;2.13;;;;;;;6.88;77.83;101413.84;5088452;28;20047;-78
2021/09/29 07:38:01;;;;;;;6.32;0.70;;;;;;;6.89;78.03;101429.22;5087245;28;20117;-77
2021/09/29 07:40:28;;;;;;;4.60;1.13;;;;;;;6.90;77.72;101430.84;5089068;28;20115;-78
2021/09/29 07:42:56;;;;;;;4.55;0.80;;;;;;;6.92;77.64;101440.44;5105118;28;20105;-79
2021/09/29 07:45:23;;;;;;;5.40;1.15;;;;;;;6.97;77.41;101445.03;5086687;28;20062;-79
2021/09/29 07:47:51;;;;;;;3.20;0.90;;;;;;;6.98;77.87;101443.91;5085477;28;20125;-78
2021/09/29 07:50:19;;;;;;;7.70;1.13;;;;;;;7.02;77.58;101455.94;5087343;28;20452;-79
2021/09/29 07:52:49;;;;;;;2.97;0.80;;;;;;;7.04;77.48;101453.72;5087412;28;20127;-79
2021/09/29 07:55:16;;;;;;;4.13;1.40;;;;;;;7.10;77.20;101457.97;5082281;28;20131;-79
2021/09/29 07:57:44;;;;;;;4.45;1.20;;;;;;;7.14;77.27;101456.28;5086195;28;20677;-79
2021/09/29 08:00:13;;;;;;;4.03;1.17;;;;;;;7.18;77.27;101471.03;5087743;28;20459;-79
2021/09/29 08:02:41;;;;;;;4.50;0.90;;;;;;;7.21;77.03;101465.75;5074836;28;20043;-79
2021/09/29 08:05:09;;;;;;;6.00;1.30;;;;;;;7.27;77.22;101463.72;5085972;28;20559;-79
2021/09/29 08:07:37;;;;;;;6.53;0.77;;;;;;;7.30;77.06;101479.66;5078157;28;20071;-79
2021/09/29 08:10:06;;;;;;;5.63;1.17;;;;;;;7.32;76.87;101472.72;5082473;28;20537;-79
2021/09/29 08:12:33;;;;;;;4.78;0.82;;;;;;;7.38;76.90;101476.19;5084557;28;20036;-79
2021/09/29 08:14:59;;;;;;;8.13;1.10;;;;;;;7.41;77.10;101481.06;5086896;28;20589;-79
2021/09/29 08:17:26;;;;;;;5.93;1.00;;;;;;;7.48;76.77;101488.91;5087017;28;20040;-78
2021/09/29 08:19:53;;;;;;;5.50;1.08;;;;;;;7.53;76.64;101488.81;5086602;28;20446;-79
2021/09/29 08:22:20;;;;;;;10.60;1.30;;;;;;;7.58;76.97;101496.97;5083737;28;20047;-78
2021/09/29 08:24:58;;;;;;;6.55;1.00;;;;;;;7.62;76.63;101498.81;5083991;28;20476;-79
2021/09/29 08:27:37;;;;;;;4.70;0.82;;;;;;;7.67;76.73;101495.97;5082625;28;20127;-79
2021/09/29 08:37:46;;;;;;;3.17;0.95;;;;;;;7.93;76.33;101510.84;5086019;28;20043;-78
2021/09/29 08:40:19;;;;;;;8.45;1.08;;;;;;;7.98;75.91;101513.47;5087523;28;20043;-79
2021/09/29 08:43:05;;;;;;;3.58;1.15;;;;;;;8.02;75.95;101524.72;5085099;28;20040;-78
2021/09/29 08:45:49;;;;;;;6.07;1.02;;;;;;;8.09;76.00;101513.25;5084972;28;20479;-79
2021/09/29 08:53:51;;;;;;;5.55;2.13;;;;;;;8.36;75.96;101521.50;5085778;28;20123;-78
2021/09/29 08:56:33;;;;;;;3.42;1.15;;;;;;;8.48;76.27;101527.25;5082728;28;20403;-79
2021/09/29 09:15:56;;;;;;;7.07;0.98;;;;;;;9.40;74.88;101540.41;5097518;28;20373;-76
2021/09/29 09:18:23;;;;;;;4.80;0.70;;;;;;;9.57;77.72;101543.22;5084762;28;20071;-76
2021/09/29 09:20:58;;;;;;;3.35;0.90;;;;;;;9.82;78.18;101546.06;5087116;28;20036;-77
2021/09/29 09:23:36;;;;;;;4.78;1.13;;;;;;;10.07;73.07;101538.97;5078693;28;20738;-77
2021/09/29 09:26:25;;;;;;;5.40;1.15;;;;;;;10.40;74.24;101551.25;5080272;28;20093;-78
2021/09/29 09:29:04;;;;;;;6.93;1.10;;;;;;;10.76;74.45;101545.41;5085293;28;20044;-77
2021/09/29 09:31:32;;;;;;;11.73;2.50;;;;;;;11.17;76.81;101541.28;5086304;28;20048;-77
2021/09/29 09:34:05;;;;;;;6.72;1.85;;;;;;;11.57;75.66;101540.66;5081659;28;20048;-78
2021/09/29 09:36:41;;;;;;;6.18;2.35;;;;;;;12.10;75.28;101551.19;5099177;28;20119;-77
2021/09/29 09:39:12;;;;;;;6.95;1.20;;;;;;;12.46;73.38;101547.03;5083753;28;20163;-77
2021/09/29 09:41:47;;;;;;;2.03;0.82;;;;;;;13.00;70.51;101545.09;5081027;28;20037;-78
2021/09/29 09:44:30;;;;;;;6.18;1.58;;;;;;;13.55;67.81;101564.97;5082597;28;20682;-77
2021/09/29 09:47:03;;;;;;;5.85;1.80;;;;;;;13.98;67.60;101554.06;5084250;28;20043;-77
2021/09/29 09:49:51;;;;;;;7.45;1.40;;;;;;;14.45;66.32;101564.75;5082606;28;20036;-77
2021/09/29 09:52:41;;;;;;;8.68;1.60;;;;;;;14.96;59.07;101563.88;5092579;28;20089;-77
2021/09/29 09:55:13;;;;;;;6.15;1.15;;;;;;;15.14;61.63;101575.53;5086677;28;20122;-77
2021/09/29 09:57:42;;;;;;;6.38;1.63;;;;;;;15.53;60.64;101565.47;5084900;28;20055;-77
2021/09/29 10:00:14;;;;;;;8.00;2.88;;;;;;;15.86;59.42;101576.28;5082648;28;20082;-77
2021/09/29 10:02:47;;;;;;;4.53;1.10;;;;;;;16.02;55.63;101580.69;5096969;28;20048;-77
2021/09/29 10:05:19;;;;;;;5.50;0.93;;;;;;;16.03;56.58;101579.53;5081445;28;20050;-77
2021/09/29 10:07:46;;;;;;;2.78;1.10;;;;;;;16.37;56.21;101586.31;5081043;28;20054;-77
2021/09/29 10:10:29;;;;;;;4.32;1.15;;;;;;;16.69;55.21;101589.84;5085458;28;20114;-77
2021/09/29 10:27:12;;;;;;;3.00;1.05;;;;;;;17.50;50.97;101613.94;5089070;28;21498;-77
2021/09/29 10:29:51;;;;;;;5.57;1.70;;;;;;;17.64;50.68;101608.59;5081404;28;20059;-78
2021/09/29 10:35:00;;;;;;;7.75;1.73;;;;;;;17.68;49.31;101603.91;5087492;28;20055;-77
2021/09/29 10:43:41;;;;;;;4.38;1.20;;;;;;;17.54;46.43;101621.25;5089044;28;20143;-78
2021/09/29 11:08:59;;;;;;;4.68;0.90;;;;;;;14.96;51.35;101636.38;5085096;28;20032;-78
2021/09/29 11:30:37;;;;;;;8.20;1.75;;;;;;;13.47;55.44;101629.84;5097630;27;20059;-76
2021/09/29 11:33:21;;;;;;;10.20;1.50;;;;;;;13.39;55.85;101639.09;5085582;28;20093;-76
2021/09/29 11:35:57;;;;;;;7.25;1.00;;;;;;;13.31;55.84;101645.56;5086083;28;20481;-77
2021/09/29 12:12:26;;;;;;;4.53;1.40;;;;;;;13.88;54.32;101671.47;5089336;28;20067;-77
2021/09/29 12:14:57;;;;;;;3.80;1.48;;;;;;;13.87;53.99;101678.16;5088083;28;20097;-77
2021/09/29 12:17:25;;;;;;;3.28;1.33;;;;;;;13.88;54.32;101668.69;5085069;28;20044;-78
2021/09/29 12:19:59;;;;;;;3.47;1.00;;;;;;;13.99;54.13;101680.19;5082421;28;20028;-78
2021/09/29 12:22:29;;;;;;;3.67;1.05;;;;;;;14.16;53.86;101670.81;5084361;28;20036;-78
2021/09/29 12:25:05;;;;;;;4.38;2.20;;;;;;;14.30;53.48;101680.44;5082566;28;20055;-77
2021/09/29 12:30:30;;;;;;;5.25;0.88;;;;;;;14.48;51.78;101692.22;5100308;28;20097;-78
2021/09/29 12:36:14;;;;;;;5.28;0.90;;;;;;;14.76;52.46;101686.72;5084935;28;20064;-78
2021/09/29 12:38:47;;;;;;;4.10;0.68;;;;;;;14.92;51.89;101685.66;5085134;28;20051;-78
2021/09/29 12:41:14;;;;;;;5.20;2.17;;;;;;;15.05;51.51;101673.31;5086555;28;20373;-78
2021/09/29 12:43:41;;;;;;;8.75;1.23;;;;;;;15.27;51.25;101681.13;5085814;28;20085;-79
2021/09/29 12:46:14;;;;;;;8.80;1.30;;;;;;;15.46;50.20;101682.50;5085427;28;20044;-78
2021/09/29 12:48:43;;;;;;;5.47;0.98;;;;;;;15.59;50.27;101689.66;5096951;28;20040;-78
2021/09/29 12:51:13;;;;;;;4.93;0.90;;;;;;;15.72;49.80;101689.22;5083440;28;20083;-78
2021/09/29 12:56:16;;;;;;;4.82;1.45;;;;;;;15.87;49.93;101703.56;5086442;28;20044;-79
2021/09/29 12:58:43;;;;;;;3.90;1.35;;;;;;;15.90;49.53;101695.28;5076049;28;20048;-78
2021/09/29 13:01:10;;;;;;;4.30;0.80;;;;;;;15.72;49.35;101703.19;5084895;28;20052;-78
2021/09/29 13:03:38;;;;;;;2.00;0.75;;;;;;;15.67;49.67;101713.81;5084279;28;20445;-78
2021/09/29 13:06:05;;;;;;;6.43;1.80;;;;;;;15.87;49.28;101696.00;5086604;28;20097;-78
2021/09/29 13:08:32;;;;;;;4.72;2.05;;;;;;;15.99;48.97;101717.47;5085428;28;20046;-78
2021/09/29 13:10:59;;;;;;;3.58;1.13;;;;;;;15.89;48.38;101712.38;5085792;28;20052;-78
2021/09/29 13:13:27;;;;;;;3.38;1.00;;;;;;;16.09;48.25;101700.19;5082102;28;20039;-79
2021/09/29 13:15:57;;;;;;;8.30;1.02;;;;;;;16.34;48.27;101702.44;5085955;28;20480;-78
2021/09/29 13:18:36;;;;;;;5.35;1.50;;;;;;;16.56;48.19;101705.78;5097849;28;20483;-79
2021/09/29 13:23:51;;;;;;;6.03;1.00;;;;;;;16.82;47.98;101714.41;5086706;28;20110;-78
2021/09/29 13:37:04;;;;;;;2.10;0.90;;;;;;;15.21;47.99;101710.44;5084108;28;20543;-78
2021/09/29 13:39:31;;;;;;;5.35;1.67;;;;;;;15.33;48.24;101706.00;5086878;28;20101;-78
2021/09/29 13:41:57;;;;;;;7.35;1.73;;;;;;;15.51;48.15;101702.59;5085490;28;20050;-78
2021/09/29 13:44:25;;;;;;;1.83;0.60;;;;;;;15.83;47.90;101704.28;5086699;28;20130;-78
2021/09/29 13:46:52;;;;;;;4.57;0.95;;;;;;;16.26;47.78;101706.22;5086772;28;20046;-79
2021/09/29 13:49:21;;;;;;;4.47;0.80;;;;;;;16.30;47.05;101709.94;5064981;28;20052;-78
2021/09/29 13:51:51;;;;;;;2.78;0.85;;;;;;;16.39;46.34;101710.53;5082819;28;20040;-77
2021/09/29 13:54:23;;;;;;;3.45;0.60;;;;;;;16.57;46.25;101701.81;5083523;28;20544;-77
2021/09/29 14:30:07;;;;;;;0.85;0.40;;;;;;;17.71;43.95;101709.59;5085159;28;20756;-78
2021/09/29 14:32:33;;;;;;;1.83;0.70;;;;;;;17.55;43.13;101701.25;5081565;28;20036;-78
2021/09/29 14:35:00;;;;;;;3.17;1.40;;;;;;;17.50;43.42;101695.13;5084877;28;20044;-78
2021/09/29 14:37:26;;;;;;;2.45;0.70;;;;;;;17.53;43.80;101703.63;5085482;28;20040;-78
2021/09/29 14:39:53;;;;;;;3.33;1.30;;;;;;;17.72;43.94;101699.16;5085233;28;20476;-78
2021/09/29 14:42:20;;;;;;;3.72;0.60;;;;;;;17.63;43.59;101691.81;5081643;28;20056;-78
2021/09/29 14:44:46;;;;;;;2.03;0.60;;;;;;;17.42;44.04;101696.94;5082240;28;20071;-78
2021/09/29 14:47:13;;;;;;;4.22;0.68;;;;;;;17.51;43.88;101688.31;5086293;28;20135;-78